Knossos Palace — SYQO — position and weather

sailwx.info

Track history (hours):
 
Tides and Currents Weather Stations Pressure Air Temp Water Temp Dewpoint Dewpoint Depression Visibility Wind Speed Wind Dir Waves Ship Positions

Knossos Palace

Last reported at 2014-Dec-20 04:33 UTC. Time now 2014-Dec-20 05:11 UTC.
Position N 35°21' E 025°09'.

Length 214 m; beam 26.4 m; draft 7.3 m.

Type: Ship. MMSI: 237641000.

Date/timePositionNaut miles runAvg speedWind from/ knotsBaromVisibWave heightAir tempDewpointWater temp
2014-Dec-20 04:33N 35°21' E 025°09'1717.2
2014-Dec-20 03:33N 35°36' E 024°59'1818.0
2014-Dec-20 02:33N 35°52' E 024°48'1918.8
2014-Dec-20 01:33N 36°08' E 024°36'1919.0
2014-Dec-20 00:33N 36°24' E 024°24'2019.7
2014-Dec-19 23:33N 36°42' E 024°13'2019.6
2014-Dec-19 22:33N 36°60' E 024°03'3919.5
2014-Dec-19 20:33N 37°36' E 023°45'1919.3
2014-Dec-19 19:33N 37°54' E 023°37'3 2.7
2014-Dec-19 18:32N 37°57' E 023°38'0 0.0
2014-Dec-19 17:32N 37°57' E 023°38'0 0.0
2014-Dec-19 16:32N 37°57' E 023°38'0 0.0
2014-Dec-19 15:33N 37°57' E 023°38'0 0.0
2014-Dec-19 14:32N 37°57' E 023°38'0 0.0
2014-Dec-19 13:32N 37°57' E 023°38'0 0.0
2014-Dec-19 12:32N 37°57' E 023°38'0 0.0
2014-Dec-19 11:32N 37°57' E 023°38'0 0.0
2014-Dec-19 10:32N 37°57' E 023°38'0 0.0
2014-Dec-19 09:32N 37°57' E 023°38'0 0.0
2014-Dec-19 08:32N 37°57' E 023°38'0 0.0
2014-Dec-19 07:32N 37°57' E 023°38'0 0.0
2014-Dec-19 06:32N 37°57' E 023°38'0 0.0
2014-Dec-19 05:32N 37°57' E 023°38'3 3.4
2014-Dec-19 04:33N 37°53' E 023°38'1818.2
2014-Dec-19 03:33N 37°36' E 023°48'2219.0
2014-Dec-19 02:25N 37°16' E 023°57'1618.8
2014-Dec-19 01:33N 37°01' E 024°04'2619.1
2014-Dec-19 00:11N 36°37' E 024°17'1219.1
2014-Dec-18 23:32N 36°26' E 024°24'1918.9
2014-Dec-18 22:33N 36°10' E 024°35'1918.9
2014-Dec-18 21:33N 35°53' E 024°47'1919.3
2014-Dec-18 20:32N 35°37' E 024°59'18 2.4
2014-Dec-18 13:12N 35°21' E 025°09'0 0.0
2014-Dec-18 06:06N 35°21' E 025°09'0 0.0
2014-Dec-18 05:30N 35°21' E 025°09'0 0.4
2014-Dec-18 04:33N 35°21' E 025°09'1717.5
2014-Dec-18 03:33N 35°36' E 024°59'1918.6
2014-Dec-18 02:33N 35°52' E 024°47'1918.9
2014-Dec-18 01:34N 36°08' E 024°35'1919.4
2014-Dec-18 00:33N 36°25' E 024°23'1919.2
2014-Dec-17 23:33N 36°42' E 024°12'1918.8
2014-Dec-17 22:33N 36°60' E 024°03'1918.4
2014-Dec-17 21:33N 37°17' E 023°54'1919.2
2014-Dec-17 20:33N 37°35' E 023°45'1919.1
2014-Dec-17 19:34N 37°52' E 023°37'4 4.4
2014-Dec-17 18:34N 37°57' E 023°38'0 0.0
2014-Dec-17 17:31N 37°57' E 023°38'0 0.0
2014-Dec-17 16:31N 37°57' E 023°38'0 0.0
2014-Dec-17 15:31N 37°57' E 023°38'0 0.0
2014-Dec-17 14:31N 37°57' E 023°38'0 0.0
2014-Dec-17 13:31N 37°57' E 023°38'0 0.0
2014-Dec-17 12:31N 37°57' E 023°38'0 0.0
2014-Dec-17 11:31N 37°57' E 023°38'0 0.0
2014-Dec-17 10:31N 37°57' E 023°38'0 0.0
2014-Dec-17 09:31N 37°57' E 023°38'0 0.0
2014-Dec-17 08:31N 37°57' E 023°38'0 0.0
2014-Dec-17 07:31N 37°57' E 023°38'0 0.0
2014-Dec-17 06:31N 37°57' E 023°38'0 0.0
2014-Dec-17 05:31N 37°57' E 023°38'0 0.2
2014-Dec-17 04:33N 37°56' E 023°38'1616.5
2014-Dec-17 03:33N 37°41' E 023°45'8419.6
2014-Dec-16 23:17N 36°24' E 024°25'1419.5
2014-Dec-16 22:33N 36°11' E 024°34'2019.6
2014-Dec-16 21:33N 35°54' E 024°46'2019.9
2014-Dec-16 20:33N 35°37' E 024°59'1818.2
2014-Dec-16 19:33N 35°21' E 025°09'16 1.0
2014-Dec-16 03:32N 35°35' E 024°60'1818.0
2014-Dec-16 02:33N 35°50' E 024°49'2219.5
2014-Dec-16 01:27N 36°09' E 024°35'1618.0
2014-Dec-16 00:33N 36°23' E 024°26'1918.8
2014-Dec-15 23:33N 36°39' E 024°14'1919.1
2014-Dec-15 22:33N 36°57' E 024°05'2219.1
2014-Dec-15 21:25N 37°17' E 023°54'2019.3
2014-Dec-15 20:25N 37°35' E 023°45'1619.3
2014-Dec-15 19:34N 37°50' E 023°37'6 6.2
2014-Dec-15 18:33N 37°57' E 023°38'0 0.0
2014-Dec-15 17:33N 37°57' E 023°38'0 0.0
2014-Dec-15 16:33N 37°57' E 023°38'0 0.0
2014-Dec-15 15:33N 37°57' E 023°38'0 0.0
2014-Dec-15 14:33N 37°57' E 023°38'0 0.0
2014-Dec-15 13:33N 37°57' E 023°38'0 0.0
2014-Dec-15 12:33N 37°57' E 023°38'0 0.0
2014-Dec-15 11:33N 37°57' E 023°38'0 0.0
2014-Dec-15 10:33N 37°57' E 023°38'0 0.0
2014-Dec-15 09:33N 37°57' E 023°38'0 0.0
2014-Dec-15 08:33N 37°57' E 023°38'0 0.0
2014-Dec-15 07:33N 37°57' E 023°38'0 0.0
2014-Dec-15 06:33N 37°57' E 023°38'0 0.0
2014-Dec-15 05:33N 37°57' E 023°38'0 0.2
2014-Dec-15 04:33N 37°56' E 023°38'1716.8
2014-Dec-15 03:33N 37°41' E 023°45'2619.1
2014-Dec-15 02:13N 37°17' E 023°57'1320.0
2014-Dec-15 01:33N 37°04' E 024°03'2020.0
2014-Dec-15 00:33N 36°46' E 024°12'1919.5
2014-Dec-14 23:33N 36°28' E 024°22'2019.6
2014-Dec-14 22:33N 36°11' E 024°34'2019.5
2014-Dec-14 21:33N 35°54' E 024°46'2020.0
2014-Dec-14 20:33N 35°37' E 024°59'1816.6
2014-Dec-14 19:27N 35°21' E 025°09'0 0.0
2014-Dec-14 12:09N 35°21' E 025°09'5 0.7
2014-Dec-14 04:21N 35°26' E 025°07'1518.3
2014-Dec-14 03:33N 35°38' E 024°58'1817.7
2014-Dec-14 02:33N 35°54' E 024°47'1817.9
2014-Dec-14 01:33N 36°09' E 024°35'1818.4
2014-Dec-14 00:33N 36°25' E 024°24'1818.2
2014-Dec-13 23:33N 36°41' E 024°13'1818.4
2014-Dec-13 22:33N 36°58' E 024°04'2018.3
2014-Dec-13 21:27N 37°17' E 023°54'1718.6
2014-Dec-13 20:33N 37°32' E 023°46'1818.1
2014-Dec-13 19:33N 37°49' E 023°38'8 7.8
2014-Dec-13 18:34N 37°57' E 023°38'0 0.0
2014-Dec-13 17:33N 37°57' E 023°38'0 0.0
2014-Dec-13 16:33N 37°57' E 023°38'0 0.0
2014-Dec-13 15:33N 37°57' E 023°38'0 0.0
2014-Dec-13 14:33N 37°57' E 023°38'0 0.0
2014-Dec-13 13:33N 37°57' E 023°38'0 0.0
2014-Dec-13 12:33N 37°57' E 023°38'0 0.0
2014-Dec-13 11:33N 37°57' E 023°38'0 0.0
2014-Dec-13 10:33N 37°57' E 023°38'0 0.0
2014-Dec-13 09:33N 37°57' E 023°38'0 0.0
2014-Dec-13 08:33N 37°57' E 023°38'0 0.0
2014-Dec-13 07:33N 37°57' E 023°38'0 0.0
2014-Dec-13 06:33N 37°57' E 023°38'0 0.0
2014-Dec-13 05:33N 37°57' E 023°38'3 3.5
2014-Dec-13 04:33N 37°53' E 023°38'2120.0
2014-Dec-13 03:32N 37°34' E 023°49'2219.9
2014-Dec-13 02:25N 37°13' E 023°58'1619.1
2014-Dec-13 01:33N 36°58' E 024°06'1918.7
2014-Dec-13 00:33N 36°41' E 024°14'1818.4
2014-Dec-12 23:33N 36°24' E 024°24'1817.7
2014-Dec-12 22:33N 36°09' E 024°35'1818.3
2014-Dec-12 21:33N 35°53' E 024°47'1919.1
2014-Dec-12 20:33N 35°37' E 024°59'1817.4
2014-Dec-12 19:32N 35°21' E 025°09'0 0.2
2014-Dec-12 18:33N 35°21' E 025°09'0 0.0
2014-Dec-12 04:32N 35°21' E 025°09'1515.2
2014-Dec-12 03:33N 35°34' E 025°01'1817.9
2014-Dec-12 02:34N 35°50' E 024°49'1818.1
2014-Dec-12 01:33N 36°05' E 024°38'1918.7
2014-Dec-12 00:33N 36°21' E 024°26'1119.4
2014-Dec-12 00:00N 36°30' E 024°18'920.4 360 / 201007.0 5.4 15.014.223.0
2014-Dec-11 23:34N 36°38' E 024°14'2020.1
2014-Dec-11 22:33N 36°57' E 024°05'2220.0
2014-Dec-11 21:28N 37°17' E 023°54'1919.7
2014-Dec-11 20:31N 37°34' E 023°45'1919.6
2014-Dec-11 19:33N 37°52' E 023°37'5 4.7
2014-Dec-11 18:33N 37°57' E 023°38'0 0.0
2014-Dec-11 17:31N 37°57' E 023°38'0 0.0
2014-Dec-11 16:31N 37°57' E 023°38'0 0.0
2014-Dec-11 15:31N 37°57' E 023°38'0 0.0
2014-Dec-11 14:31N 37°57' E 023°38'0 0.0
2014-Dec-11 13:31N 37°57' E 023°38'0 0.0
2014-Dec-11 12:31N 37°57' E 023°38'0 0.0
2014-Dec-11 11:34N 37°57' E 023°38'0 0.0
2014-Dec-11 10:34N 37°57' E 023°38'0 0.0
2014-Dec-11 09:34N 37°57' E 023°38'0 0.0
2014-Dec-11 08:34N 37°57' E 023°38'0 0.0
2014-Dec-11 07:33N 37°57' E 023°38'0 0.0
2014-Dec-11 06:34N 37°57' E 023°38'0 0.0
2014-Dec-11 05:33N 37°57' E 023°38'0 0.1
2014-Dec-11 04:34N 37°56' E 023°38'1615.5
2014-Dec-11 03:33N 37°42' E 023°46'2919.4
2014-Dec-11 02:05N 37°15' E 023°58'1019.8
2014-Dec-11 01:33N 37°05' E 024°02'2019.7
2014-Dec-11 00:33N 36°47' E 024°11'2019.7
2014-Dec-10 23:34N 36°29' E 024°22'2019.5
2014-Dec-10 22:33N 36°12' E 024°34'2019.9
2014-Dec-10 21:33N 35°55' E 024°46'2020.2
2014-Dec-10 20:33N 35°37' E 024°58'1918.5
2014-Dec-10 19:33N 35°21' E 025°09'0 0.2
2014-Dec-10 18:31N 35°21' E 025°09'0 0.0
2014-Dec-10 17:31N 35°21' E 025°09'0 0.0
2014-Dec-10 16:07N 35°21' E 025°09'0 0.0
2014-Dec-10 15:31N 35°21' E 025°09'0 0.0
2014-Dec-10 14:31N 35°21' E 025°09'1 0.1
2014-Dec-10 04:33N 35°21' E 025°09'  
Track history (hours):
 
Tides and Currents Weather Stations Pressure Air Temp Water Temp Dewpoint Dewpoint Depression Visibility Wind Speed Wind Dir Waves Ship Positions

Knossos Palace

Last reported at 2014-Dec-20 04:33 UTC. Time now 2014-Dec-20 05:11 UTC.
Position N 35°21' E 025°09'.

Length 214 m; beam 26.4 m; draft 7.3 m.

Type: Ship. MMSI: 237641000.

Date/timePositionNaut miles runAvg speedWind from/ knotsBaromVisibWave heightAir tempDewpointWater temp
2014-Dec-20 04:33N 35°21' E 025°09'1717.2
2014-Dec-20 03:33N 35°36' E 024°59'1818.0
2014-Dec-20 02:33N 35°52' E 024°48'1918.8
2014-Dec-20 01:33N 36°08' E 024°36'1919.0
2014-Dec-20 00:33N 36°24' E 024°24'2019.7
2014-Dec-19 23:33N 36°42' E 024°13'2019.6
2014-Dec-19 22:33N 36°60' E 024°03'3919.5
2014-Dec-19 20:33N 37°36' E 023°45'1919.3
2014-Dec-19 19:33N 37°54' E 023°37'3 2.7
2014-Dec-19 18:32N 37°57' E 023°38'0 0.0
2014-Dec-19 17:32N 37°57' E 023°38'0 0.0
2014-Dec-19 16:32N 37°57' E 023°38'0 0.0
2014-Dec-19 15:33N 37°57' E 023°38'0 0.0
2014-Dec-19 14:32N 37°57' E 023°38'0 0.0
2014-Dec-19 13:32N 37°57' E 023°38'0 0.0
2014-Dec-19 12:32N 37°57' E 023°38'0 0.0
2014-Dec-19 11:32N 37°57' E 023°38'0 0.0
2014-Dec-19 10:32N 37°57' E 023°38'0 0.0
2014-Dec-19 09:32N 37°57' E 023°38'0 0.0
2014-Dec-19 08:32N 37°57' E 023°38'0 0.0
2014-Dec-19 07:32N 37°57' E 023°38'0 0.0
2014-Dec-19 06:32N 37°57' E 023°38'0 0.0
2014-Dec-19 05:32N 37°57' E 023°38'3 3.4
2014-Dec-19 04:33N 37°53' E 023°38'1818.2
2014-Dec-19 03:33N 37°36' E 023°48'2219.0
2014-Dec-19 02:25N 37°16' E 023°57'1618.8
2014-Dec-19 01:33N 37°01' E 024°04'2619.1
2014-Dec-19 00:11N 36°37' E 024°17'1219.1
2014-Dec-18 23:32N 36°26' E 024°24'1918.9
2014-Dec-18 22:33N 36°10' E 024°35'1918.9
2014-Dec-18 21:33N 35°53' E 024°47'1919.3
2014-Dec-18 20:32N 35°37' E 024°59'18 2.4
2014-Dec-18 13:12N 35°21' E 025°09'0 0.0
2014-Dec-18 06:06N 35°21' E 025°09'0 0.0
2014-Dec-18 05:30N 35°21' E 025°09'0 0.4
2014-Dec-18 04:33N 35°21' E 025°09'1717.5
2014-Dec-18 03:33N 35°36' E 024°59'1918.6
2014-Dec-18 02:33N 35°52' E 024°47'1918.9
2014-Dec-18 01:34N 36°08' E 024°35'1919.4
2014-Dec-18 00:33N 36°25' E 024°23'1919.2
2014-Dec-17 23:33N 36°42' E 024°12'1918.8
2014-Dec-17 22:33N 36°60' E 024°03'1918.4
2014-Dec-17 21:33N 37°17' E 023°54'1919.2
2014-Dec-17 20:33N 37°35' E 023°45'1919.1
2014-Dec-17 19:34N 37°52' E 023°37'4 4.4
2014-Dec-17 18:34N 37°57' E 023°38'0 0.0
2014-Dec-17 17:31N 37°57' E 023°38'0 0.0
2014-Dec-17 16:31N 37°57' E 023°38'0 0.0
2014-Dec-17 15:31N 37°57' E 023°38'0 0.0
2014-Dec-17 14:31N 37°57' E 023°38'0 0.0
2014-Dec-17 13:31N 37°57' E 023°38'0 0.0
2014-Dec-17 12:31N 37°57' E 023°38'0 0.0
2014-Dec-17 11:31N 37°57' E 023°38'0 0.0
2014-Dec-17 10:31N 37°57' E 023°38'0 0.0
2014-Dec-17 09:31N 37°57' E 023°38'0 0.0
2014-Dec-17 08:31N 37°57' E 023°38'0 0.0
2014-Dec-17 07:31N 37°57' E 023°38'0 0.0
2014-Dec-17 06:31N 37°57' E 023°38'0 0.0
2014-Dec-17 05:31N 37°57' E 023°38'0 0.2
2014-Dec-17 04:33N 37°56' E 023°38'1616.5
2014-Dec-17 03:33N 37°41' E 023°45'8419.6
2014-Dec-16 23:17N 36°24' E 024°25'1419.5
2014-Dec-16 22:33N 36°11' E 024°34'2019.6
2014-Dec-16 21:33N 35°54' E 024°46'2019.9
2014-Dec-16 20:33N 35°37' E 024°59'1818.2
2014-Dec-16 19:33N 35°21' E 025°09'16 1.0
2014-Dec-16 03:32N 35°35' E 024°60'1818.0
2014-Dec-16 02:33N 35°50' E 024°49'2219.5
2014-Dec-16 01:27N 36°09' E 024°35'1618.0
2014-Dec-16 00:33N 36°23' E 024°26'1918.8
2014-Dec-15 23:33N 36°39' E 024°14'1919.1
2014-Dec-15 22:33N 36°57' E 024°05'2219.1
2014-Dec-15 21:25N 37°17' E 023°54'2019.3
2014-Dec-15 20:25N 37°35' E 023°45'1619.3
2014-Dec-15 19:34N 37°50' E 023°37'6 6.2
2014-Dec-15 18:33N 37°57' E 023°38'0 0.0
2014-Dec-15 17:33N 37°57' E 023°38'0 0.0
2014-Dec-15 16:33N 37°57' E 023°38'0 0.0
2014-Dec-15 15:33N 37°57' E 023°38'0 0.0
2014-Dec-15 14:33N 37°57' E 023°38'0 0.0
2014-Dec-15 13:33N 37°57' E 023°38'0 0.0
2014-Dec-15 12:33N 37°57' E 023°38'0 0.0
2014-Dec-15 11:33N 37°57' E 023°38'0 0.0
2014-Dec-15 10:33N 37°57' E 023°38'0 0.0
2014-Dec-15 09:33N 37°57' E 023°38'0 0.0
2014-Dec-15 08:33N 37°57' E 023°38'0 0.0
2014-Dec-15 07:33N 37°57' E 023°38'0 0.0
2014-Dec-15 06:33N 37°57' E 023°38'0 0.0
2014-Dec-15 05:33N 37°57' E 023°38'0 0.2
2014-Dec-15 04:33N 37°56' E 023°38'1716.8
2014-Dec-15 03:33N 37°41' E 023°45'2619.1
2014-Dec-15 02:13N 37°17' E 023°57'1320.0
2014-Dec-15 01:33N 37°04' E 024°03'2020.0
2014-Dec-15 00:33N 36°46' E 024°12'1919.5
2014-Dec-14 23:33N 36°28' E 024°22'2019.6
2014-Dec-14 22:33N 36°11' E 024°34'2019.5
2014-Dec-14 21:33N 35°54' E 024°46'2020.0
2014-Dec-14 20:33N 35°37' E 024°59'1816.6
2014-Dec-14 19:27N 35°21' E 025°09'0 0.0
2014-Dec-14 12:09N 35°21' E 025°09'5 0.7
2014-Dec-14 04:21N 35°26' E 025°07'1518.3
2014-Dec-14 03:33N 35°38' E 024°58'1817.7
2014-Dec-14 02:33N 35°54' E 024°47'1817.9
2014-Dec-14 01:33N 36°09' E 024°35'1818.4
2014-Dec-14 00:33N 36°25' E 024°24'1818.2
2014-Dec-13 23:33N 36°41' E 024°13'1818.4
2014-Dec-13 22:33N 36°58' E 024°04'2018.3
2014-Dec-13 21:27N 37°17' E 023°54'1718.6
2014-Dec-13 20:33N 37°32' E 023°46'1818.1
2014-Dec-13 19:33N 37°49' E 023°38'8 7.8
2014-Dec-13 18:34N 37°57' E 023°38'0 0.0
2014-Dec-13 17:33N 37°57' E 023°38'0 0.0
2014-Dec-13 16:33N 37°57' E 023°38'0 0.0
2014-Dec-13 15:33N 37°57' E 023°38'0 0.0
2014-Dec-13 14:33N 37°57' E 023°38'0 0.0
2014-Dec-13 13:33N 37°57' E 023°38'0 0.0
2014-Dec-13 12:33N 37°57' E 023°38'0 0.0
2014-Dec-13 11:33N 37°57' E 023°38'0 0.0
2014-Dec-13 10:33N 37°57' E 023°38'0 0.0
2014-Dec-13 09:33N 37°57' E 023°38'0 0.0
2014-Dec-13 08:33N 37°57' E 023°38'0 0.0
2014-Dec-13 07:33N 37°57' E 023°38'0 0.0
2014-Dec-13 06:33N 37°57' E 023°38'0 0.0
2014-Dec-13 05:33N 37°57' E 023°38'3 3.5
2014-Dec-13 04:33N 37°53' E 023°38'2120.0
2014-Dec-13 03:32N 37°34' E 023°49'2219.9
2014-Dec-13 02:25N 37°13' E 023°58'1619.1
2014-Dec-13 01:33N 36°58' E 024°06'1918.7
2014-Dec-13 00:33N 36°41' E 024°14'1818.4
2014-Dec-12 23:33N 36°24' E 024°24'1817.7
2014-Dec-12 22:33N 36°09' E 024°35'1818.3
2014-Dec-12 21:33N 35°53' E 024°47'1919.1
2014-Dec-12 20:33N 35°37' E 024°59'1817.4
2014-Dec-12 19:32N 35°21' E 025°09'0 0.2
2014-Dec-12 18:33N 35°21' E 025°09'0 0.0
2014-Dec-12 04:32N 35°21' E 025°09'1515.2
2014-Dec-12 03:33N 35°34' E 025°01'1817.9
2014-Dec-12 02:34N 35°50' E 024°49'1818.1
2014-Dec-12 01:33N 36°05' E 024°38'1918.7
2014-Dec-12 00:33N 36°21' E 024°26'1119.4
2014-Dec-12 00:00N 36°30' E 024°18'920.4 360 / 201007.0 5.4 15.014.223.0
2014-Dec-11 23:34N 36°38' E 024°14'2020.1
2014-Dec-11 22:33N 36°57' E 024°05'2220.0
2014-Dec-11 21:28N 37°17' E 023°54'1919.7
2014-Dec-11 20:31N 37°34' E 023°45'1919.6
2014-Dec-11 19:33N 37°52' E 023°37'5 4.7
2014-Dec-11 18:33N 37°57' E 023°38'0 0.0
2014-Dec-11 17:31N 37°57' E 023°38'0 0.0
2014-Dec-11 16:31N 37°57' E 023°38'0 0.0
2014-Dec-11 15:31N 37°57' E 023°38'0 0.0
2014-Dec-11 14:31N 37°57' E 023°38'0 0.0
2014-Dec-11 13:31N 37°57' E 023°38'0 0.0
2014-Dec-11 12:31N 37°57' E 023°38'0 0.0
2014-Dec-11 11:34N 37°57' E 023°38'0 0.0
2014-Dec-11 10:34N 37°57' E 023°38'0 0.0
2014-Dec-11 09:34N 37°57' E 023°38'0 0.0
2014-Dec-11 08:34N 37°57' E 023°38'0 0.0
2014-Dec-11 07:33N 37°57' E 023°38'0 0.0
2014-Dec-11 06:34N 37°57' E 023°38'0 0.0
2014-Dec-11 05:33N 37°57' E 023°38'0 0.1
2014-Dec-11 04:34N 37°56' E 023°38'1615.5
2014-Dec-11 03:33N 37°42' E 023°46'2919.4
2014-Dec-11 02:05N 37°15' E 023°58'1019.8
2014-Dec-11 01:33N 37°05' E 024°02'2019.7
2014-Dec-11 00:33N 36°47' E 024°11'2019.7
2014-Dec-10 23:34N 36°29' E 024°22'2019.5
2014-Dec-10 22:33N 36°12' E 024°34'2019.9
2014-Dec-10 21:33N 35°55' E 024°46'2020.2
2014-Dec-10 20:33N 35°37' E 024°58'1918.5
2014-Dec-10 19:33N 35°21' E 025°09'0 0.2
2014-Dec-10 18:31N 35°21' E 025°09'0 0.0
2014-Dec-10 17:31N 35°21' E 025°09'0 0.0
2014-Dec-10 16:07N 35°21' E 025°09'0 0.0
2014-Dec-10 15:31N 35°21' E 025°09'0 0.0
2014-Dec-10 14:31N 35°21' E 025°09'1 0.1
2014-Dec-10 04:33N 35°21' E 025°09'  

Dump ship's entire track history